DLH839 EKBI-EDDF
Flight info
| Callsign | DLH839 |
|---|---|
| Flight time | 1h 6m |
| Altitude | 37000 |
| Route | ALS M852 EKERN DCT RIMET/N0408F310 T157 KOKEB/N0359F230 T157 KERAX KERAX5A |
| Aircraft | A319/M-SDE2E3FGIJ1LORWXYZ/HB1 |
Departure
| Time | 2026-05-07 09:51 |
|---|---|
| Airport | Billund Airport (EKBI) |
Arrival
| Time | 2026-05-07 10:57 |
|---|---|
| Airport | Frankfurt Main Airport (EDDF) |
| Time | Latitude | Longitude | Altitude | Speed | Heading |
|---|---|---|---|---|---|
| 2026-05-07 09:10 | 55.74533 | 9.14813 | 229 ft | 0 kts | 356° |
| 2026-05-07 09:40 | 55.74525 | 9.14814 | 227 ft | 4 kts | 356° |
| 2026-05-07 09:40 | 55.74499 | 9.14817 | 227 ft | 4 kts | 358° |
| 2026-05-07 09:40 | 55.74472 | 9.14813 | 229 ft | 4 kts | 21° |
| 2026-05-07 09:41 | 55.74454 | 9.14789 | 231 ft | 4 kts | 77° |
| 2026-05-07 09:41 | 55.74453 | 9.14778 | 230 ft | 0 kts | 88° |
| 2026-05-07 09:44 | 55.74453 | 9.14779 | 230 ft | 1 kts | 88° |
| 2026-05-07 09:44 | 55.74454 | 9.14839 | 229 ft | 8 kts | 87° |
| 2026-05-07 09:45 | 55.74451 | 9.14944 | 229 ft | 8 kts | 111° |
| 2026-05-07 09:45 | 55.74400 | 9.14980 | 228 ft | 9 kts | 175° |
| 2026-05-07 09:45 | 55.74320 | 9.14986 | 228 ft | 13 kts | 178° |
| 2026-05-07 09:45 | 55.74225 | 9.15002 | 230 ft | 14 kts | 165° |
| 2026-05-07 09:46 | 55.74202 | 9.15149 | 229 ft | 13 kts | 86° |
| 2026-05-07 09:46 | 55.74207 | 9.15319 | 231 ft | 15 kts | 86° |
| 2026-05-07 09:46 | 55.74213 | 9.15509 | 232 ft | 15 kts | 86° |
| 2026-05-07 09:46 | 55.74219 | 9.15700 | 233 ft | 15 kts | 86° |
| 2026-05-07 09:47 | 55.74226 | 9.15889 | 234 ft | 15 kts | 86° |
| 2026-05-07 09:47 | 55.74231 | 9.16079 | 236 ft | 16 kts | 87° |
| 2026-05-07 09:47 | 55.74237 | 9.16278 | 237 ft | 16 kts | 87° |
| 2026-05-07 09:47 | 55.74243 | 9.16474 | 238 ft | 16 kts | 87° |
| 2026-05-07 09:48 | 55.74249 | 9.16670 | 239 ft | 16 kts | 87° |
| 2026-05-07 09:48 | 55.74257 | 9.16865 | 241 ft | 16 kts | 86° |
| 2026-05-07 09:48 | 55.74263 | 9.17071 | 242 ft | 17 kts | 87° |
| 2026-05-07 09:48 | 55.74269 | 9.17275 | 243 ft | 17 kts | 86° |
| 2026-05-07 09:49 | 55.74276 | 9.17478 | 245 ft | 16 kts | 86° |
| 2026-05-07 09:49 | 55.74282 | 9.17677 | 246 ft | 16 kts | 86° |
| 2026-05-07 09:49 | 55.74288 | 9.17880 | 247 ft | 16 kts | 88° |
| 2026-05-07 09:49 | 55.74275 | 9.18076 | 249 ft | 16 kts | 121° |
| 2026-05-07 09:50 | 55.74177 | 9.18148 | 249 ft | 17 kts | 179° |
| 2026-05-07 09:50 | 55.74124 | 9.17993 | 247 ft | 19 kts | 266° |
| 2026-05-07 09:50 | 55.74108 | 9.17470 | 243 ft | 81 kts | 267° |
| 2026-05-07 09:50 | 55.74062 | 9.16030 | 233 ft | 149 kts | 266° |
| 2026-05-07 09:51 | 55.73995 | 9.14082 | 768 ft | 158 kts | 265° |
| 2026-05-07 09:51 | 55.74240 | 9.12189 | 1501 ft | 165 kts | 301° |
| 2026-05-07 09:51 | 55.74968 | 9.10480 | 2097 ft | 184 kts | 306° |
| 2026-05-07 09:51 | 55.75768 | 9.08531 | 2577 ft | 207 kts | 304° |
| 2026-05-07 09:52 | 55.76651 | 9.06337 | 3058 ft | 231 kts | 304° |
| 2026-05-07 09:52 | 55.77631 | 9.03885 | 3705 ft | 252 kts | 304° |
| 2026-05-07 09:52 | 55.78660 | 9.01302 | 4697 ft | 260 kts | 303° |
| 2026-05-07 09:52 | 55.79415 | 8.98379 | 5700 ft | 264 kts | 277° |
| 2026-05-07 09:53 | 55.79131 | 8.95188 | 6743 ft | 267 kts | 242° |
| 2026-05-07 09:53 | 55.77852 | 8.92816 | 7707 ft | 273 kts | 208° |
| 2026-05-07 09:53 | 55.76001 | 8.92092 | 8642 ft | 281 kts | 175° |
| 2026-05-07 09:53 | 55.74169 | 8.93297 | 9580 ft | 287 kts | 144° |
| 2026-05-07 09:54 | 55.72655 | 8.95643 | 10427 ft | 296 kts | 134° |
| 2026-05-07 09:54 | 55.71166 | 8.98364 | 10848 ft | 318 kts | 133° |
| 2026-05-07 09:54 | 55.69606 | 9.01237 | 11569 ft | 328 kts | 133° |
| 2026-05-07 09:54 | 55.67993 | 9.04135 | 12414 ft | 333 kts | 137° |
| 2026-05-07 09:55 | 55.66199 | 9.06781 | 13281 ft | 338 kts | 143° |
| 2026-05-07 09:55 | 55.64278 | 9.09232 | 14091 ft | 343 kts | 146° |
| 2026-05-07 09:55 | 55.62282 | 9.11617 | 14862 ft | 347 kts | 147° |
| 2026-05-07 09:55 | 55.60259 | 9.13992 | 15634 ft | 351 kts | 147° |
| 2026-05-07 09:56 | 55.58220 | 9.16412 | 16374 ft | 355 kts | 147° |
| 2026-05-07 09:56 | 55.56171 | 9.18893 | 17110 ft | 360 kts | 147° |
| 2026-05-07 09:56 | 55.54105 | 9.21439 | 17843 ft | 364 kts | 147° |
| 2026-05-07 09:56 | 55.52020 | 9.24035 | 18574 ft | 369 kts | 146° |
| 2026-05-07 09:57 | 55.49913 | 9.26672 | 19207 ft | 373 kts | 146° |
| 2026-05-07 09:57 | 55.47789 | 9.29333 | 19858 ft | 377 kts | 146° |
| 2026-05-07 09:57 | 55.45643 | 9.32016 | 20511 ft | 380 kts | 146° |
| 2026-05-07 09:57 | 55.43475 | 9.34720 | 21166 ft | 384 kts | 146° |
| 2026-05-07 09:58 | 55.41285 | 9.37444 | 21793 ft | 387 kts | 146° |
| 2026-05-07 09:58 | 55.39075 | 9.40183 | 22432 ft | 390 kts | 146° |
| 2026-05-07 09:58 | 55.36842 | 9.42940 | 23067 ft | 394 kts | 146° |
| 2026-05-07 09:58 | 55.34589 | 9.45718 | 23686 ft | 397 kts | 146° |
| 2026-05-07 09:59 | 55.32318 | 9.48519 | 24209 ft | 401 kts | 146° |
| 2026-05-07 09:59 | 55.30033 | 9.51338 | 24712 ft | 404 kts | 146° |
| 2026-05-07 09:59 | 55.27724 | 9.54183 | 25220 ft | 407 kts | 146° |
| 2026-05-07 09:59 | 55.25396 | 9.57045 | 25716 ft | 410 kts | 146° |
| 2026-05-07 10:00 | 55.23048 | 9.59924 | 26203 ft | 413 kts | 146° |
| 2026-05-07 10:00 | 55.20682 | 9.62822 | 26677 ft | 417 kts | 146° |
| 2026-05-07 10:00 | 55.18295 | 9.65736 | 27137 ft | 420 kts | 146° |
| 2026-05-07 10:00 | 55.15920 | 9.68626 | 27603 ft | 423 kts | 145° |
| 2026-05-07 10:01 | 55.13498 | 9.71574 | 28054 ft | 426 kts | 145° |
| 2026-05-07 10:01 | 55.11061 | 9.74540 | 28542 ft | 428 kts | 145° |
| 2026-05-07 10:01 | 55.08606 | 9.77521 | 29004 ft | 431 kts | 145° |
| 2026-05-07 10:01 | 55.06129 | 9.80524 | 29448 ft | 434 kts | 145° |
| 2026-05-07 10:02 | 55.03639 | 9.83542 | 29902 ft | 438 kts | 145° |
| 2026-05-07 10:02 | 55.01134 | 9.86571 | 30310 ft | 441 kts | 145° |
| 2026-05-07 10:02 | 54.98603 | 9.89624 | 30688 ft | 443 kts | 146° |
| 2026-05-07 10:02 | 54.96055 | 9.92655 | 31070 ft | 445 kts | 148° |
| 2026-05-07 10:03 | 54.93301 | 9.95130 | 31419 ft | 447 kts | 159° |
| 2026-05-07 10:03 | 54.90333 | 9.96740 | 31758 ft | 448 kts | 169° |
| 2026-05-07 10:03 | 54.87250 | 9.97417 | 32235 ft | 445 kts | 179° |
| 2026-05-07 10:03 | 54.84179 | 9.97191 | 32742 ft | 441 kts | 189° |
| 2026-05-07 10:04 | 54.81174 | 9.96257 | 33349 ft | 436 kts | 192° |
| 2026-05-07 10:04 | 54.79206 | 9.95607 | 33721 ft | 435 kts | 192° |
| 2026-05-07 10:04 | 54.76235 | 9.94638 | 34222 ft | 433 kts | 192° |
| 2026-05-07 10:04 | 54.73276 | 9.93680 | 34633 ft | 432 kts | 192° |
| 2026-05-07 10:05 | 54.70321 | 9.92724 | 35021 ft | 431 kts | 192° |
| 2026-05-07 10:05 | 54.67373 | 9.91770 | 35387 ft | 431 kts | 192° |
| 2026-05-07 10:05 | 54.64428 | 9.90818 | 35737 ft | 430 kts | 192° |
| 2026-05-07 10:05 | 54.61493 | 9.89872 | 36084 ft | 430 kts | 192° |
| 2026-05-07 10:06 | 54.58548 | 9.88923 | 36418 ft | 429 kts | 192° |
| 2026-05-07 10:06 | 54.55621 | 9.87988 | 36756 ft | 428 kts | 192° |
| 2026-05-07 10:06 | 54.52688 | 9.87057 | 37023 ft | 429 kts | 191° |
| 2026-05-07 10:07 | 54.46753 | 9.86832 | 37103 ft | 427 kts | 178° |
| 2026-05-07 10:07 | 54.40838 | 9.87571 | 37106 ft | 426 kts | 178° |
| 2026-05-07 10:08 | 54.34926 | 9.88277 | 37105 ft | 426 kts | 178° |
| 2026-05-07 10:08 | 54.29014 | 9.88975 | 37103 ft | 426 kts | 178° |
| 2026-05-07 10:09 | 54.23107 | 9.89680 | 37098 ft | 426 kts | 178° |
| 2026-05-07 10:09 | 54.17193 | 9.90390 | 37091 ft | 426 kts | 178° |
| 2026-05-07 10:10 | 54.11323 | 9.91089 | 37066 ft | 426 kts | 178° |
| 2026-05-07 10:10 | 54.05373 | 9.91791 | 37063 ft | 426 kts | 178° |
| 2026-05-07 10:11 | 53.99499 | 9.92479 | 37062 ft | 426 kts | 178° |
| 2026-05-07 10:11 | 53.93545 | 9.93176 | 37061 ft | 426 kts | 178° |
| 2026-05-07 10:12 | 53.87640 | 9.93875 | 37057 ft | 426 kts | 178° |
| 2026-05-07 10:12 | 53.81765 | 9.94557 | 37048 ft | 426 kts | 178° |
| 2026-05-07 10:13 | 53.75853 | 9.95235 | 37050 ft | 426 kts | 178° |
| 2026-05-07 10:13 | 53.69945 | 9.95924 | 37053 ft | 426 kts | 177° |
| 2026-05-07 10:14 | 53.64034 | 9.96626 | 37056 ft | 426 kts | 178° |
| 2026-05-07 10:14 | 53.58129 | 9.97307 | 37057 ft | 426 kts | 178° |
| 2026-05-07 10:15 | 53.52220 | 9.97984 | 37054 ft | 426 kts | 177° |
| 2026-05-07 10:15 | 53.46312 | 9.98665 | 37056 ft | 425 kts | 178° |
| 2026-05-07 10:16 | 53.40404 | 9.99350 | 37054 ft | 425 kts | 177° |
| 2026-05-07 10:16 | 53.34493 | 10.00022 | 37058 ft | 426 kts | 178° |
| 2026-05-07 10:17 | 53.28581 | 10.00684 | 37054 ft | 426 kts | 178° |
| 2026-05-07 10:17 | 53.22672 | 10.01352 | 37052 ft | 426 kts | 178° |
| 2026-05-07 10:18 | 53.16761 | 10.02028 | 37054 ft | 426 kts | 177° |
| 2026-05-07 10:18 | 53.10844 | 10.02704 | 37062 ft | 426 kts | 178° |
| 2026-05-07 10:19 | 53.04931 | 10.03371 | 37058 ft | 426 kts | 177° |
| 2026-05-07 10:19 | 52.99020 | 10.04032 | 37058 ft | 426 kts | 177° |
| 2026-05-07 10:20 | 52.93107 | 10.04693 | 37063 ft | 426 kts | 177° |
| 2026-05-07 10:20 | 52.87194 | 10.05349 | 37063 ft | 426 kts | 177° |
| 2026-05-07 10:21 | 52.81283 | 10.06011 | 37051 ft | 426 kts | 177° |
| 2026-05-07 10:21 | 52.75379 | 10.06672 | 37048 ft | 426 kts | 177° |
| 2026-05-07 10:22 | 52.69469 | 10.07326 | 37026 ft | 426 kts | 177° |
| 2026-05-07 10:22 | 52.63573 | 10.07981 | 37038 ft | 425 kts | 178° |
| 2026-05-07 10:23 | 52.57672 | 10.08627 | 37031 ft | 425 kts | 178° |
| 2026-05-07 10:23 | 52.51780 | 10.09263 | 37035 ft | 424 kts | 178° |
| 2026-05-07 10:24 | 52.45891 | 10.09915 | 37031 ft | 424 kts | 177° |
| 2026-05-07 10:24 | 52.40011 | 10.10574 | 37030 ft | 424 kts | 178° |
| 2026-05-07 10:25 | 52.34124 | 10.11213 | 37033 ft | 424 kts | 178° |
| 2026-05-07 10:25 | 52.28239 | 10.11846 | 37020 ft | 424 kts | 178° |
| 2026-05-07 10:26 | 52.22394 | 10.12474 | 37014 ft | 424 kts | 177° |
| 2026-05-07 10:26 | 52.16511 | 10.13119 | 37015 ft | 424 kts | 177° |
| 2026-05-07 10:27 | 52.10629 | 10.13766 | 37015 ft | 424 kts | 177° |
| 2026-05-07 10:27 | 52.04751 | 10.14391 | 37018 ft | 423 kts | 178° |
| 2026-05-07 10:28 | 51.98833 | 10.15019 | 37003 ft | 423 kts | 178° |
| 2026-05-07 10:28 | 51.92946 | 10.15647 | 37009 ft | 424 kts | 178° |
| 2026-05-07 10:29 | 51.87071 | 10.16282 | 37006 ft | 423 kts | 177° |
| 2026-05-07 10:29 | 51.81191 | 10.16907 | 36993 ft | 423 kts | 178° |
| 2026-05-07 10:30 | 51.72376 | 10.17851 | 37004 ft | 423 kts | 178° |
| 2026-05-07 10:30 | 51.66546 | 10.18473 | 36996 ft | 423 kts | 177° |
| 2026-05-07 10:31 | 51.60677 | 10.19091 | 36978 ft | 423 kts | 177° |
| 2026-05-07 10:31 | 51.54786 | 10.19710 | 36973 ft | 425 kts | 177° |
| 2026-05-07 10:32 | 51.48862 | 10.20328 | 36122 ft | 434 kts | 177° |
| 2026-05-07 10:32 | 51.45795 | 10.20650 | 34921 ft | 448 kts | 177° |
| 2026-05-07 10:32 | 51.42693 | 10.20978 | 34349 ft | 444 kts | 177° |
| 2026-05-07 10:33 | 51.39624 | 10.21307 | 33823 ft | 439 kts | 177° |
| 2026-05-07 10:33 | 51.36591 | 10.21627 | 33234 ft | 434 kts | 176° |
| 2026-05-07 10:33 | 51.33593 | 10.21935 | 32663 ft | 429 kts | 176° |
| 2026-05-07 10:33 | 51.30624 | 10.22100 | 32074 ft | 425 kts | 178° |
| 2026-05-07 10:34 | 51.27679 | 10.22087 | 31502 ft | 421 kts | 180° |
| 2026-05-07 10:34 | 51.24767 | 10.21970 | 30954 ft | 417 kts | 180° |
| 2026-05-07 10:34 | 51.21881 | 10.21819 | 30432 ft | 413 kts | 179° |
| 2026-05-07 10:34 | 51.19026 | 10.21678 | 29848 ft | 408 kts | 179° |
| 2026-05-07 10:35 | 51.16210 | 10.21567 | 29052 ft | 403 kts | 179° |
| 2026-05-07 10:35 | 51.13421 | 10.21489 | 28466 ft | 395 kts | 178° |
| 2026-05-07 10:35 | 51.10714 | 10.21439 | 28058 ft | 385 kts | 178° |
| 2026-05-07 10:35 | 51.08052 | 10.21405 | 27628 ft | 378 kts | 178° |
| 2026-05-07 10:36 | 51.05446 | 10.21373 | 27208 ft | 374 kts | 178° |
| 2026-05-07 10:36 | 51.02861 | 10.21339 | 26780 ft | 371 kts | 178° |
| 2026-05-07 10:36 | 51.00287 | 10.21301 | 26347 ft | 369 kts | 179° |
| 2026-05-07 10:36 | 50.97736 | 10.21259 | 25898 ft | 366 kts | 179° |
| 2026-05-07 10:37 | 50.95193 | 10.21220 | 25448 ft | 363 kts | 179° |
| 2026-05-07 10:37 | 50.92669 | 10.21179 | 25000 ft | 362 kts | 179° |
| 2026-05-07 10:37 | 50.90153 | 10.21133 | 24529 ft | 362 kts | 179° |
| 2026-05-07 10:37 | 50.87629 | 10.21085 | 24051 ft | 362 kts | 180° |
| 2026-05-07 10:38 | 50.85107 | 10.21013 | 23541 ft | 364 kts | 183° |
| 2026-05-07 10:38 | 50.82617 | 10.20256 | 22971 ft | 365 kts | 199° |
| 2026-05-07 10:38 | 50.80349 | 10.18487 | 22470 ft | 364 kts | 215° |
| 2026-05-07 10:38 | 50.78461 | 10.15861 | 22006 ft | 362 kts | 230° |
| 2026-05-07 10:39 | 50.77072 | 10.12569 | 21542 ft | 359 kts | 245° |
| 2026-05-07 10:39 | 50.75960 | 10.09055 | 21082 ft | 358 kts | 245° |
| 2026-05-07 10:39 | 50.74846 | 10.05554 | 20629 ft | 356 kts | 244° |
| 2026-05-07 10:39 | 50.73731 | 10.02077 | 20176 ft | 353 kts | 244° |
| 2026-05-07 10:40 | 50.72624 | 9.98636 | 19733 ft | 351 kts | 244° |
| 2026-05-07 10:40 | 50.71522 | 9.95207 | 19291 ft | 349 kts | 244° |
| 2026-05-07 10:40 | 50.70431 | 9.91807 | 18868 ft | 347 kts | 245° |
| 2026-05-07 10:40 | 50.69356 | 9.88458 | 18422 ft | 345 kts | 244° |
| 2026-05-07 10:41 | 50.68275 | 9.85094 | 17952 ft | 343 kts | 245° |
| 2026-05-07 10:41 | 50.67198 | 9.81750 | 17522 ft | 340 kts | 245° |
| 2026-05-07 10:41 | 50.66130 | 9.78446 | 17104 ft | 337 kts | 244° |
| 2026-05-07 10:41 | 50.65058 | 9.75128 | 16691 ft | 334 kts | 244° |
| 2026-05-07 10:42 | 50.64021 | 9.71938 | 16292 ft | 331 kts | 243° |
| 2026-05-07 10:42 | 50.62684 | 9.69001 | 15889 ft | 331 kts | 228° |
| 2026-05-07 10:42 | 50.60919 | 9.66686 | 15492 ft | 332 kts | 214° |
| 2026-05-07 10:42 | 50.58842 | 9.65113 | 15092 ft | 332 kts | 202° |
| 2026-05-07 10:43 | 50.56693 | 9.63809 | 14690 ft | 330 kts | 202° |
| 2026-05-07 10:43 | 50.54557 | 9.62509 | 14289 ft | 329 kts | 202° |
| 2026-05-07 10:43 | 50.52426 | 9.61210 | 13910 ft | 328 kts | 202° |
| 2026-05-07 10:43 | 50.50302 | 9.59914 | 13483 ft | 326 kts | 203° |
| 2026-05-07 10:44 | 50.48260 | 9.58426 | 13085 ft | 322 kts | 213° |
| 2026-05-07 10:44 | 50.46527 | 9.56266 | 12711 ft | 316 kts | 228° |
| 2026-05-07 10:44 | 50.45123 | 9.53642 | 12353 ft | 311 kts | 233° |
| 2026-05-07 10:44 | 50.43762 | 9.51020 | 11992 ft | 308 kts | 232° |
| 2026-05-07 10:45 | 50.42408 | 9.48434 | 11643 ft | 305 kts | 232° |
| 2026-05-07 10:45 | 50.41063 | 9.45884 | 11288 ft | 302 kts | 232° |
| 2026-05-07 10:45 | 50.39731 | 9.43362 | 10942 ft | 299 kts | 232° |
| 2026-05-07 10:45 | 50.38410 | 9.40859 | 10599 ft | 296 kts | 232° |
| 2026-05-07 10:46 | 50.37102 | 9.38381 | 10263 ft | 294 kts | 232° |
| 2026-05-07 10:46 | 50.35810 | 9.35930 | 9921 ft | 291 kts | 232° |
| 2026-05-07 10:46 | 50.34529 | 9.33500 | 9562 ft | 288 kts | 232° |
| 2026-05-07 10:46 | 50.33258 | 9.31091 | 9223 ft | 286 kts | 232° |
| 2026-05-07 10:47 | 50.31996 | 9.28702 | 8893 ft | 284 kts | 232° |
| 2026-05-07 10:47 | 50.30739 | 9.26323 | 8563 ft | 283 kts | 232° |
| 2026-05-07 10:47 | 50.29487 | 9.23960 | 8240 ft | 281 kts | 232° |
| 2026-05-07 10:47 | 50.28239 | 9.21607 | 7898 ft | 281 kts | 232° |
| 2026-05-07 10:48 | 50.26996 | 9.19264 | 7584 ft | 279 kts | 232° |
| 2026-05-07 10:48 | 50.25764 | 9.16943 | 7247 ft | 277 kts | 232° |
| 2026-05-07 10:48 | 50.24534 | 9.14626 | 6925 ft | 276 kts | 232° |
| 2026-05-07 10:48 | 50.23314 | 9.12327 | 6605 ft | 275 kts | 232° |
| 2026-05-07 10:49 | 50.22096 | 9.10038 | 6290 ft | 274 kts | 232° |
| 2026-05-07 10:49 | 50.20883 | 9.07760 | 5965 ft | 272 kts | 232° |
| 2026-05-07 10:49 | 50.19673 | 9.05488 | 5645 ft | 271 kts | 232° |
| 2026-05-07 10:49 | 50.18470 | 9.03230 | 5333 ft | 269 kts | 232° |
| 2026-05-07 10:50 | 50.17303 | 9.01047 | 5223 ft | 255 kts | 232° |
| 2026-05-07 10:50 | 50.16198 | 8.98980 | 5123 ft | 242 kts | 232° |
| 2026-05-07 10:50 | 50.15157 | 8.97010 | 5010 ft | 229 kts | 236° |
| 2026-05-07 10:50 | 50.14429 | 8.94912 | 4994 ft | 216 kts | 250° |
| 2026-05-07 10:51 | 50.13892 | 8.92741 | 4995 ft | 213 kts | 252° |
| 2026-05-07 10:51 | 50.13558 | 8.91309 | 4999 ft | 213 kts | 253° |
| 2026-05-07 10:51 | 50.13055 | 8.89161 | 4997 ft | 206 kts | 253° |
| 2026-05-07 10:51 | 50.12572 | 8.87102 | 4995 ft | 197 kts | 252° |
| 2026-05-07 10:52 | 50.12106 | 8.85124 | 4955 ft | 193 kts | 253° |
| 2026-05-07 10:52 | 50.11645 | 8.83163 | 4681 ft | 191 kts | 252° |
| 2026-05-07 10:52 | 50.11189 | 8.81227 | 4408 ft | 190 kts | 253° |
| 2026-05-07 10:52 | 50.10736 | 8.79305 | 4134 ft | 188 kts | 253° |
| 2026-05-07 10:53 | 50.10284 | 8.77390 | 3876 ft | 189 kts | 252° |
| 2026-05-07 10:53 | 50.09830 | 8.75468 | 3597 ft | 189 kts | 253° |
| 2026-05-07 10:53 | 50.09379 | 8.73559 | 3326 ft | 187 kts | 253° |
| 2026-05-07 10:53 | 50.08931 | 8.71670 | 3046 ft | 185 kts | 253° |
| 2026-05-07 10:54 | 50.08488 | 8.69797 | 2777 ft | 184 kts | 252° |
| 2026-05-07 10:54 | 50.08046 | 8.67934 | 2516 ft | 183 kts | 252° |
| 2026-05-07 10:54 | 50.07612 | 8.66105 | 2246 ft | 174 kts | 253° |
| 2026-05-07 10:54 | 50.07205 | 8.64394 | 2000 ft | 164 kts | 253° |
| 2026-05-07 10:55 | 50.06812 | 8.62741 | 1764 ft | 159 kts | 252° |
| 2026-05-07 10:55 | 50.06450 | 8.61220 | 1530 ft | 141 kts | 253° |
| 2026-05-07 10:55 | 50.06124 | 8.59854 | 1340 ft | 130 kts | 252° |
| 2026-05-07 10:55 | 50.05813 | 8.58541 | 1145 ft | 127 kts | 252° |
| 2026-05-07 10:56 | 50.05505 | 8.57249 | 956 ft | 127 kts | 252° |
| 2026-05-07 10:56 | 50.05199 | 8.55962 | 772 ft | 126 kts | 253° |
| 2026-05-07 10:56 | 50.04905 | 8.54708 | 584 ft | 125 kts | 250° |
| 2026-05-07 10:56 | 50.04600 | 8.53433 | 434 ft | 126 kts | 249° |
| 2026-05-07 10:57 | 50.04308 | 8.52223 | 346 ft | 107 kts | 249° |
| 2026-05-07 10:57 | 50.04111 | 8.51385 | 330 ft | 51 kts | 249° |
| 2026-05-07 10:57 | 50.04000 | 8.51057 | 327 ft | 29 kts | 232° |
| 2026-05-07 10:57 | 50.03859 | 8.50861 | 327 ft | 23 kts | 212° |
| 2026-05-07 10:58 | 50.03783 | 8.50904 | 334 ft | 12 kts | 89° |
| 2026-05-07 10:58 | 50.03811 | 8.51047 | 333 ft | 16 kts | 70° |
| 2026-05-07 10:58 | 50.03850 | 8.51207 | 336 ft | 16 kts | 70° |
| 2026-05-07 10:58 | 50.03890 | 8.51376 | 335 ft | 17 kts | 70° |
| 2026-05-07 10:59 | 50.03932 | 8.51554 | 336 ft | 18 kts | 70° |
| 2026-05-07 10:59 | 50.03975 | 8.51735 | 335 ft | 18 kts | 69° |
| 2026-05-07 10:59 | 50.04021 | 8.51920 | 337 ft | 18 kts | 69° |